Terminal Aerodrome Forecast
Issued by NWS

Home | Current Version | Previous Version | Text Only | Print | Product List | Glossary On
Versions: 1 2 3 4 5 6 7 8 9 10 11 12 13 14 15 16 17 18
207
FTUS41 KBGM 251011 AAA
TAFELM
TAF AMD
KELM 251011Z 2510/2606 VRB03KT P6SM SCT080
      TEMPO 2510/2512 3SM BR SCT002
     FM251300 26007KT P6SM SCT060
     FM251600 26010G15KT P6SM BKN060
     FM252300 VRB03KT P6SM SCT060=

USA.gov is the U.S. government's official web portal to all federal, state and local government web resources and services.